Time;durP1;ratioP1;P1;durP2;ratioP2;P2;SDS_P1;SDS_P2;PMS_P1;PMS_P2;Temp;Humidity;BMP_temperature;BMP_pressure;BME280_temperature;BME280_humidity;BME280_pressure;Samples;Min_cycle;Max_cycle;Signal;HPM_P1;HPM_P2
2023/09/26 00:01:28;;;;;;;7.75;1.10;;;14.70;99.90;;;;;;4434232;32;20097;-59
2023/09/26 00:03:54;;;;;;;;;;;14.70;99.90;;;;;;4433200;32;20092;-58
2023/09/26 00:06:21;;;;;;;0.80;0.80;;;14.60;99.90;;;;;;4434137;32;19964;-60
2023/09/26 00:08:47;;;;;;;1.58;0.65;;;14.60;99.90;;;;;;4432031;32;20080;-60
2023/09/26 00:11:13;;;;;;;0.85;0.85;;;14.50;99.90;;;;;;4437314;32;20452;-61
2023/09/26 00:13:38;;;;;;;1.30;0.90;;;14.50;99.90;;;;;;4436469;32;20206;-61
2023/09/26 00:16:06;;;;;;;0.45;0.45;;;14.30;99.90;;;;;;4438199;32;20129;-60
2023/09/26 00:18:32;;;;;;;2.55;1.23;;;14.30;99.90;;;;;;4437313;32;20096;-60
2023/09/26 00:20:57;;;;;;;1.45;0.85;;;14.40;99.90;;;;;;4434459;32;20682;-61
2023/09/26 00:23:22;;;;;;;0.70;0.70;;;14.40;99.90;;;;;;4436385;32;20507;-61
2023/09/26 00:25:48;;;;;;;0.52;0.52;;;14.40;99.90;;;;;;4438407;32;20060;-60
2023/09/26 00:28:14;;;;;;;1.02;0.75;;;14.50;99.90;;;;;;4438695;32;20094;-60
2023/09/26 00:30:41;;;;;;;0.68;0.68;;;14.50;99.90;;;;;;4438201;32;20073;-59
2023/09/26 00:33:06;;;;;;;0.57;0.57;;;14.50;99.90;;;;;;4437413;32;20101;-60
2023/09/26 00:35:32;;;;;;;5.22;1.30;;;14.50;99.90;;;;;;4436677;32;20100;-60
2023/09/26 00:37:57;;;;;;;0.52;0.52;;;14.60;99.90;;;;;;4438911;32;20089;-60
2023/09/26 00:40:23;;;;;;;0.52;0.50;;;14.60;99.90;;;;;;4439036;32;20081;-58
2023/09/26 00:42:49;;;;;;;0.75;0.70;;;14.50;99.90;;;;;;4439635;32;20430;-59
2023/09/26 00:45:15;;;;;;;0.93;0.60;;;14.50;99.90;;;;;;4440021;32;20080;-59
2023/09/26 00:47:42;;;;;;;0.70;0.60;;;14.60;99.90;;;;;;4441051;32;20073;-59
2023/09/26 00:50:10;;;;;;;0.77;0.73;;;14.60;99.90;;;;;;4439286;32;20081;-58
2023/09/26 00:52:36;;;;;;;1.20;0.88;;;14.60;99.90;;;;;;4439054;32;20097;-59
2023/09/26 00:55:04;;;;;;;1.02;0.95;;;14.50;99.90;;;;;;4437932;32;20117;-59
2023/09/26 00:57:33;;;;;;;0.40;0.40;;;14.50;99.90;;;;;;4438682;32;20475;-58
2023/09/26 01:00:01;;;;;;;1.35;0.77;;;14.50;99.90;;;;;;4436074;32;20074;-59
2023/09/26 01:02:27;;;;;;;1.40;0.82;;;14.60;99.90;;;;;;4436727;32;20175;-58
2023/09/26 01:04:53;;;;;;;0.57;0.57;;;14.60;99.90;;;;;;4437700;32;20516;-59
2023/09/26 01:07:19;;;;;;;0.50;0.50;;;14.50;99.90;;;;;;4436936;32;20088;-58
2023/09/26 01:09:44;;;;;;;0.68;0.60;;;14.50;99.90;;;;;;4436414;32;20600;-58
2023/09/26 01:12:11;;;;;;;1.65;0.60;;;14.50;99.90;;;;;;4437054;32;20106;-58
2023/09/26 01:14:36;;;;;;;0.82;0.77;;;14.40;99.90;;;;;;4437855;32;20107;-57
2023/09/26 01:17:02;;;;;;;0.40;0.40;;;14.50;99.90;;;;;;4438194;32;20073;-57
2023/09/26 01:19:27;;;;;;;0.85;0.62;;;14.60;99.90;;;;;;4438485;32;20471;-59
2023/09/26 01:21:53;;;;;;;0.43;0.43;;;14.50;99.90;;;;;;4437451;32;21231;-59
2023/09/26 01:24:18;;;;;;;0.65;0.65;;;14.50;99.90;;;;;;4436428;32;21349;-59
2023/09/26 01:26:44;;;;;;;0.85;0.68;;;14.60;99.90;;;;;;4433283;32;20085;-59
2023/09/26 01:29:11;;;;;;;1.23;1.02;;;14.60;99.90;;;;;;4435310;32;20101;-60
2023/09/26 01:31:37;;;;;;;0.80;0.80;;;14.60;99.90;;;;;;4433893;32;20088;-60
2023/09/26 01:34:03;;;;;;;0.75;0.75;;;14.60;99.90;;;;;;4436299;32;20477;-58
2023/09/26 01:36:29;;;;;;;0.68;0.65;;;14.60;99.90;;;;;;4435163;32;20157;-59
2023/09/26 01:38:54;;;;;;;0.52;0.50;;;14.70;99.90;;;;;;4437024;32;20074;-60
2023/09/26 01:41:22;;;;;;;0.40;0.40;;;14.70;99.90;;;;;;4434954;32;20615;-59
2023/09/26 01:43:47;;;;;;;0.40;0.40;;;14.70;99.90;;;;;;4433222;32;20148;-59
2023/09/26 01:46:13;;;;;;;0.65;0.57;;;14.70;99.90;;;;;;4437904;32;20096;-60
2023/09/26 01:48:38;;;;;;;0.45;0.45;;;14.70;99.90;;;;;;4432541;32;20097;-60
2023/09/26 01:51:05;;;;;;;0.40;0.40;;;14.70;99.90;;;;;;4435466;32;20078;-59
2023/09/26 01:53:31;;;;;;;0.90;0.50;;;14.70;99.90;;;;;;4437455;32;20105;-59
2023/09/26 01:55:59;;;;;;;1.27;0.68;;;14.70;99.90;;;;;;4433091;32;20532;-58
2023/09/26 01:58:24;;;;;;;6.95;0.80;;;14.70;99.90;;;;;;4433855;32;20088;-58
2023/09/26 02:00:50;;;;;;;1.10;0.82;;;14.70;99.90;;;;;;4437690;32;20653;-59
2023/09/26 02:03:15;;;;;;;0.40;0.40;;;14.60;99.90;;;;;;4434984;32;20097;-58
2023/09/26 02:05:40;;;;;;;0.40;0.40;;;14.60;99.90;;;;;;4429724;32;20135;-59
2023/09/26 02:08:08;;;;;;;1.20;1.02;;;14.60;99.90;;;;;;4440449;32;20085;-59
2023/09/26 02:10:33;;;;;;;1.02;0.70;;;14.60;99.90;;;;;;4439493;32;20104;-58
2023/09/26 02:12:59;;;;;;;0.40;0.40;;;14.50;99.90;;;;;;4436311;32;20085;-58
2023/09/26 02:15:25;;;;;;;0.57;0.57;;;14.60;99.90;;;;;;4438068;32;20073;-59
2023/09/26 02:17:51;;;;;;;0.57;0.57;;;14.50;99.90;;;;;;4440567;32;20073;-58
2023/09/26 02:20:18;;;;;;;2.17;0.82;;;14.50;99.90;;;;;;4435734;32;20535;-60
2023/09/26 02:22:46;;;;;;;0.65;0.65;;;14.50;99.90;;;;;;4437038;32;20511;-60
2023/09/26 02:25:13;;;;;;;0.43;0.43;;;14.50;99.90;;;;;;4434981;32;20057;-60
2023/09/26 02:27:40;;;;;;;1.08;0.77;;;14.50;99.90;;;;;;4433940;32;20073;-59
2023/09/26 02:30:08;;;;;;;0.70;0.70;;;14.50;99.90;;;;;;4433068;32;20290;-61
2023/09/26 02:32:34;;;;;;;0.50;0.50;;;14.60;99.90;;;;;;4433905;32;20531;-59
2023/09/26 02:34:59;;;;;;;0.88;0.65;;;14.50;99.90;;;;;;4436147;32;20065;-60
2023/09/26 02:37:25;;;;;;;0.70;0.62;;;14.50;99.90;;;;;;4435467;32;20062;-60
2023/09/26 02:39:50;;;;;;;1.80;0.62;;;14.50;99.90;;;;;;4435778;32;20069;-60
2023/09/26 02:42:16;;;;;;;0.50;0.50;;;14.50;99.90;;;;;;4437592;32;20410;-61
2023/09/26 02:44:41;;;;;;;0.60;0.60;;;14.50;99.90;;;;;;4436705;32;20076;-61
2023/09/26 02:47:07;;;;;;;0.60;0.60;;;14.60;99.90;;;;;;4435830;32;20096;-61
2023/09/26 02:49:32;;;;;;;1.95;0.90;;;14.50;99.90;;;;;;4436673;32;20542;-60
2023/09/26 02:51:58;;;;;;;0.77;0.77;;;14.30;99.90;;;;;;4435934;32;20183;-61
2023/09/26 02:54:25;;;;;;;0.90;0.60;;;14.30;99.90;;;;;;4437430;32;20126;-58
2023/09/26 02:56:50;;;;;;;1.35;0.80;;;14.30;99.90;;;;;;4435770;32;20136;-58
2023/09/26 02:59:16;;;;;;;0.73;0.73;;;14.20;99.90;;;;;;4436961;32;20132;-57
2023/09/26 03:01:41;;;;;;;0.77;0.77;;;14.30;99.90;;;;;;4435057;32;20151;-60
2023/09/26 03:04:07;;;;;;;0.82;0.80;;;14.30;99.90;;;;;;4437017;32;20068;-57
2023/09/26 03:06:32;;;;;;;0.50;0.50;;;14.30;99.90;;;;;;4437361;32;20414;-59
2023/09/26 03:08:58;;;;;;;0.65;0.60;;;14.30;99.90;;;;;;4438021;32;20138;-59
2023/09/26 03:11:23;;;;;;;0.50;0.50;;;14.30;99.90;;;;;;4437653;32;20496;-59
2023/09/26 03:13:49;;;;;;;1.85;0.98;;;14.20;99.90;;;;;;4438366;32;20165;-59
2023/09/26 03:16:14;;;;;;;0.88;0.60;;;14.20;99.90;;;;;;4436296;32;20173;-58
2023/09/26 03:18:40;;;;;;;0.73;0.70;;;14.20;99.90;;;;;;4438433;32;20470;-59
2023/09/26 03:21:06;;;;;;;0.47;0.47;;;14.20;99.90;;;;;;4435721;32;20535;-59
2023/09/26 03:23:32;;;;;;;1.17;0.62;;;14.10;99.90;;;;;;4435813;32;20097;-59
2023/09/26 03:25:58;;;;;;;0.77;0.70;;;14.20;99.90;;;;;;4433827;32;20128;-59
2023/09/26 03:28:23;;;;;;;1.85;0.75;;;14.20;99.90;;;;;;4437964;32;20077;-57
2023/09/26 03:30:49;;;;;;;3.70;1.17;;;14.10;99.90;;;;;;4436323;32;21328;-60
2023/09/26 03:33:14;;;;;;;1.12;0.60;;;14.00;99.90;;;;;;4436637;32;20084;-59
2023/09/26 03:35:40;;;;;;;1.05;0.65;;;14.00;99.90;;;;;;4433763;32;20575;-58
2023/09/26 03:38:06;;;;;;;1.27;0.60;;;13.90;99.90;;;;;;4434798;32;20065;-60
2023/09/26 03:40:31;;;;;;;0.70;0.70;;;13.90;99.90;;;;;;4436555;32;20100;-58
2023/09/26 03:42:57;;;;;;;0.45;0.45;;;13.90;99.90;;;;;;4437135;32;20217;-59
2023/09/26 03:45:23;;;;;;;0.45;0.45;;;13.90;99.90;;;;;;4439970;32;20503;-58
2023/09/26 03:47:49;;;;;;;0.50;0.50;;;13.90;99.90;;;;;;4438808;32;20097;-59
2023/09/26 03:50:15;;;;;;;0.60;0.60;;;13.90;99.90;;;;;;4435423;32;20093;-59
2023/09/26 03:52:41;;;;;;;0.37;0.37;;;13.90;99.90;;;;;;4436527;32;20532;-59
2023/09/26 03:55:07;;;;;;;1.08;0.82;;;13.80;99.90;;;;;;4434365;32;20081;-59
2023/09/26 03:57:33;;;;;;;0.60;0.60;;;13.80;99.90;;;;;;4437781;32;20097;-60
2023/09/26 03:59:59;;;;;;;0.70;0.70;;;13.80;99.90;;;;;;4434254;32;20101;-61
2023/09/26 04:02:25;;;;;;;0.50;0.50;;;13.80;99.90;;;;;;4434231;32;20421;-58
2023/09/26 04:04:50;;;;;;;2.97;0.80;;;13.90;99.90;;;;;;4434309;32;20135;-60
2023/09/26 04:07:16;;;;;;;1.10;1.00;;;13.80;99.90;;;;;;4435346;32;20061;-60
2023/09/26 04:09:41;;;;;;;5.47;0.90;;;13.80;99.90;;;;;;4436880;32;20514;-59
2023/09/26 04:12:07;;;;;;;1.48;1.00;;;13.80;99.90;;;;;;4435840;32;20088;-58
2023/09/26 04:14:32;;;;;;;0.47;0.47;;;13.80;99.90;;;;;;4435102;32;20084;-59
2023/09/26 04:16:58;;;;;;;0.50;0.50;;;13.80;99.90;;;;;;4438465;32;20086;-59
2023/09/26 04:19:24;;;;;;;0.70;0.70;;;13.80;99.90;;;;;;4435174;32;20519;-60
2023/09/26 04:21:52;;;;;;;1.33;0.70;;;13.80;99.90;;;;;;4428298;32;20065;-58
2023/09/26 04:24:19;;;;;;;1.27;0.90;;;13.80;99.90;;;;;;4432054;32;20112;-58
2023/09/26 04:26:45;;;;;;;0.50;0.50;;;13.80;99.90;;;;;;4436638;32;20385;-59
2023/09/26 04:29:11;;;;;;;2.40;1.27;;;13.80;99.90;;;;;;4434960;32;20100;-58
2023/09/26 04:31:36;;;;;;;1.65;1.00;;;13.90;99.90;;;;;;4434852;32;20057;-60
2023/09/26 04:34:02;;;;;;;0.43;0.43;;;13.80;99.90;;;;;;4434334;32;20077;-59
2023/09/26 04:36:29;;;;;;;6.03;0.70;;;13.80;99.90;;;;;;4435231;32;20797;-58
2023/09/26 04:38:54;;;;;;;5.60;0.80;;;13.80;99.90;;;;;;4434299;32;20092;-60
2023/09/26 04:41:20;;;;;;;0.60;0.60;;;13.80;99.90;;;;;;4434589;32;21851;-58
2023/09/26 04:43:45;;;;;;;1.55;0.75;;;13.80;99.90;;;;;;4435863;32;20054;-60
2023/09/26 04:46:12;;;;;;;0.37;0.37;;;13.80;99.90;;;;;;4438214;32;20069;-59
2023/09/26 04:48:39;;;;;;;2.62;0.70;;;13.80;99.90;;;;;;4434223;32;20360;-59
2023/09/26 04:51:08;;;;;;;3.25;1.55;;;13.80;99.90;;;;;;4434616;32;21594;-59
2023/09/26 04:53:35;;;;;;;0.82;0.82;;;13.80;99.90;;;;;;4437057;32;20089;-59
2023/09/26 04:56:01;;;;;;;0.80;0.52;;;13.70;99.90;;;;;;4436394;32;20134;-58
2023/09/26 04:58:29;;;;;;;2.87;0.95;;;13.70;99.90;;;;;;4435174;32;20097;-59
2023/09/26 05:00:54;;;;;;;0.80;0.80;;;13.70;99.90;;;;;;4432112;32;20104;-57
2023/09/26 05:03:20;;;;;;;0.75;0.73;;;13.70;99.90;;;;;;4430638;32;21639;-58
2023/09/26 05:05:45;;;;;;;0.80;0.80;;;13.70;99.90;;;;;;4431759;32;20081;-59
2023/09/26 05:08:11;;;;;;;1.17;0.77;;;13.80;99.90;;;;;;4435399;32;20140;-59
2023/09/26 05:10:37;;;;;;;0.85;0.77;;;13.70;99.90;;;;;;4432998;32;20166;-58
2023/09/26 05:13:05;;;;;;;0.80;0.40;;;13.70;99.90;;;;;;4434709;32;20650;-59
2023/09/26 05:15:33;;;;;;;0.95;0.62;;;13.70;99.90;;;;;;4433436;32;20069;-59
2023/09/26 05:17:58;;;;;;;1.12;0.75;;;13.60;99.90;;;;;;4413480;32;20060;-59
2023/09/26 05:20:24;;;;;;;0.65;0.65;;;13.60;99.90;;;;;;4431012;32;20105;-60
2023/09/26 05:22:50;;;;;;;0.60;0.60;;;13.60;99.90;;;;;;4433928;32;20085;-59
2023/09/26 05:25:16;;;;;;;0.55;0.55;;;13.60;99.90;;;;;;4434107;32;20064;-59
2023/09/26 05:27:43;;;;;;;0.62;0.62;;;13.70;99.90;;;;;;4418862;32;20528;-59
2023/09/26 05:30:11;;;;;;;0.93;0.82;;;13.70;99.90;;;;;;4420636;32;20097;-60
2023/09/26 05:32:37;;;;;;;0.75;0.75;;;13.60;99.90;;;;;;4405881;32;20296;-59
2023/09/26 05:35:06;;;;;;;0.50;0.50;;;13.60;99.90;;;;;;4420953;32;20085;-59
2023/09/26 05:37:39;;;;;;;1.35;0.80;;;13.50;99.90;;;;;;4431213;32;21377;-59
2023/09/26 05:40:07;;;;;;;0.82;0.82;;;13.50;99.90;;;;;;4431271;32;20116;-60
2023/09/26 05:42:34;;;;;;;3.33;1.62;;;13.50;99.90;;;;;;4417977;32;20093;-61
2023/09/26 05:45:00;;;;;;;1.37;0.77;;;13.60;99.90;;;;;;4421037;32;20096;-60
2023/09/26 05:47:27;;;;;;;1.80;0.68;;;13.70;99.90;;;;;;4426895;32;20511;-59
2023/09/26 05:49:53;;;;;;;0.60;0.60;;;13.70;99.90;;;;;;4423439;32;20085;-60
2023/09/26 05:52:22;;;;;;;6.30;2.15;;;13.80;99.90;;;;;;4424692;32;20065;-58
2023/09/26 05:54:48;;;;;;;3.15;0.88;;;13.80;99.90;;;;;;4414519;32;20148;-60
2023/09/26 05:57:15;;;;;;;2.50;1.55;;;13.90;99.90;;;;;;4413057;32;20097;-60
2023/09/26 05:59:41;;;;;;;0.70;0.70;;;13.90;99.90;;;;;;4410041;32;20092;-60
2023/09/26 06:02:10;;;;;;;1.85;1.42;;;13.80;99.90;;;;;;4389555;32;20592;-60
2023/09/26 06:04:40;;;;;;;0.70;0.70;;;13.80;99.90;;;;;;4408351;32;20445;-60
2023/09/26 06:07:05;;;;;;;1.00;0.77;;;13.80;99.90;;;;;;4417029;32;20456;-60
2023/09/26 06:09:31;;;;;;;2.05;1.30;;;13.90;99.90;;;;;;4407379;32;20602;-61
2023/09/26 06:11:56;;;;;;;0.90;0.88;;;14.00;99.90;;;;;;4410840;32;20088;-60
2023/09/26 06:14:22;;;;;;;0.70;0.70;;;14.00;99.90;;;;;;4410946;32;21381;-62
2023/09/26 06:16:47;;;;;;;5.47;2.03;;;14.00;99.90;;;;;;4411567;32;20469;-61
2023/09/26 06:19:13;;;;;;;1.30;0.90;;;14.00;99.90;;;;;;4411119;32;20081;-60
2023/09/26 06:21:38;;;;;;;1.20;0.65;;;14.00;99.90;;;;;;4410268;32;20090;-59
2023/09/26 06:24:06;;;;;;;2.30;1.05;;;14.10;99.90;;;;;;4411124;32;20072;-60
2023/09/26 06:26:31;;;;;;;2.33;1.40;;;14.10;99.90;;;;;;4413683;32;20101;-60
2023/09/26 06:28:57;;;;;;;0.98;0.98;;;14.20;99.90;;;;;;4417974;32;20457;-60
2023/09/26 06:31:23;;;;;;;1.37;1.20;;;14.10;99.90;;;;;;4412058;32;20230;-61
2023/09/26 06:33:48;;;;;;;1.40;1.00;;;14.10;99.90;;;;;;4417192;32;20101;-60
2023/09/26 06:36:18;;;;;;;2.22;0.77;;;14.10;99.90;;;;;;4414664;32;20104;-62
2023/09/26 06:38:43;;;;;;;1.33;0.80;;;14.10;99.90;;;;;;4401999;32;20100;-61
2023/09/26 06:41:09;;;;;;;3.12;1.42;;;14.10;99.90;;;;;;4396363;32;20089;-61
2023/09/26 06:43:36;;;;;;;1.40;1.25;;;14.30;99.90;;;;;;4413364;32;20076;-61
2023/09/26 06:46:04;;;;;;;2.75;1.02;;;14.40;99.90;;;;;;4408914;32;20081;-62
2023/09/26 06:48:30;;;;;;;0.82;0.82;;;14.40;99.90;;;;;;4404552;32;21670;-59
2023/09/26 06:50:55;;;;;;;4.65;2.72;;;14.40;99.90;;;;;;4407081;32;20903;-61
2023/09/26 06:53:22;;;;;;;0.80;0.80;;;14.50;99.90;;;;;;4406678;32;20333;-61
2023/09/26 06:55:48;;;;;;;1.50;1.05;;;14.50;99.90;;;;;;4410218;32;20081;-61
2023/09/26 06:58:13;;;;;;;5.90;0.88;;;14.60;99.90;;;;;;4404061;32;20206;-60
2023/09/26 07:00:39;;;;;;;0.68;0.68;;;14.60;99.90;;;;;;4404557;32;20077;-61
2023/09/26 07:03:06;;;;;;;0.90;0.75;;;14.60;99.90;;;;;;4402766;32;20497;-63
2023/09/26 07:05:32;;;;;;;2.90;1.30;;;14.60;99.90;;;;;;4406349;32;20077;-60
2023/09/26 07:07:57;;;;;;;0.52;0.52;;;14.70;99.90;;;;;;4402997;32;20076;-61
2023/09/26 07:10:23;;;;;;;0.65;0.65;;;14.80;99.90;;;;;;4398349;32;20428;-62
2023/09/26 07:12:49;;;;;;;0.77;0.70;;;14.80;99.90;;;;;;4406064;32;20457;-62
2023/09/26 07:15:15;;;;;;;5.35;2.03;;;14.90;99.90;;;;;;4404084;32;20137;-61
2023/09/26 07:17:41;;;;;;;2.17;1.05;;;15.00;99.90;;;;;;4407412;32;20532;-61
2023/09/26 07:20:13;;;;;;;1.02;0.90;;;15.10;99.90;;;;;;4403398;32;20233;-61
2023/09/26 07:22:39;;;;;;;1.02;0.90;;;15.30;99.90;;;;;;4398836;32;20291;-60
2023/09/26 07:25:06;;;;;;;1.25;1.00;;;15.20;99.90;;;;;;4403448;32;20737;-59
2023/09/26 07:27:31;;;;;;;1.08;0.98;;;15.30;99.90;;;;;;4409272;32;20077;-58
2023/09/26 07:29:57;;;;;;;0.70;0.70;;;15.30;99.90;;;;;;4402410;32;20194;-59
2023/09/26 07:32:22;;;;;;;1.90;1.25;;;15.40;99.90;;;;;;4392642;32;20101;-57
2023/09/26 07:34:48;;;;;;;1.67;1.12;;;15.50;99.90;;;;;;4378728;32;21652;-60
2023/09/26 07:37:14;;;;;;;2.78;1.20;;;15.60;99.90;;;;;;4397846;32;20113;-63
2023/09/26 07:39:44;;;;;;;1.75;1.20;;;15.70;99.90;;;;;;4406819;32;20239;-62
2023/09/26 07:42:09;;;;;;;1.48;1.02;;;15.70;99.90;;;;;;4405612;32;20104;-58
2023/09/26 07:44:35;;;;;;;2.72;1.48;;;15.80;99.90;;;;;;4402378;32;20100;-57
2023/09/26 07:47:03;;;;;;;2.03;1.02;;;15.80;99.90;;;;;;4400906;32;20092;-59
2023/09/26 07:49:28;;;;;;;3.40;1.25;;;15.90;99.90;;;;;;4396692;32;20246;-58
2023/09/26 07:51:54;;;;;;;2.08;1.05;;;15.90;99.90;;;;;;4374340;32;20625;-59
2023/09/26 07:54:19;;;;;;;2.47;1.55;;;16.00;99.90;;;;;;4391196;32;20101;-60
2023/09/26 07:56:45;;;;;;;1.27;1.17;;;16.00;99.90;;;;;;4392912;32;20647;-59
2023/09/26 07:59:10;;;;;;;1.00;0.93;;;16.10;99.90;;;;;;4384829;32;20085;-58
2023/09/26 08:01:36;;;;;;;1.62;0.93;;;16.10;99.90;;;;;;4402022;32;20207;-60
2023/09/26 08:04:02;;;;;;;4.97;1.52;;;16.20;99.90;;;;;;4393779;32;20689;-59
2023/09/26 08:06:28;;;;;;;4.22;0.90;;;16.20;99.90;;;;;;4393561;32;20096;-60
2023/09/26 08:08:54;;;;;;;1.50;0.95;;;16.30;99.90;;;;;;4393291;32;20553;-59
2023/09/26 08:11:21;;;;;;;1.00;1.00;;;16.40;99.90;;;;;;4395867;32;20085;-61
2023/09/26 08:13:46;;;;;;;0.62;0.57;;;16.50;99.90;;;;;;4399510;32;21182;-59
2023/09/26 08:16:13;;;;;;;2.03;1.02;;;16.50;99.90;;;;;;4397597;32;20089;-61
2023/09/26 08:18:38;;;;;;;0.95;0.95;;;16.50;99.90;;;;;;4390528;32;20061;-60
2023/09/26 08:21:04;;;;;;;3.30;1.20;;;16.60;99.90;;;;;;4396209;32;20112;-61
2023/09/26 08:23:30;;;;;;;0.93;0.93;;;16.70;99.90;;;;;;4401931;32;21081;-61
2023/09/26 08:25:57;;;;;;;2.58;1.00;;;16.70;99.90;;;;;;4393973;32;21921;-62
2023/09/26 08:28:25;;;;;;;1.92;1.15;;;16.70;99.90;;;;;;4388178;32;20167;-59
2023/09/26 08:30:51;;;;;;;2.03;1.00;;;16.60;99.90;;;;;;4384885;32;20100;-62
2023/09/26 08:33:16;;;;;;;1.42;0.88;;;16.70;99.90;;;;;;4391255;32;21063;-61
2023/09/26 08:35:42;;;;;;;1.55;0.95;;;16.80;99.90;;;;;;4390563;32;20110;-63
2023/09/26 08:38:08;;;;;;;3.33;0.95;;;16.90;99.90;;;;;;4384917;32;20081;-62
2023/09/26 08:40:33;;;;;;;4.87;1.60;;;16.90;99.90;;;;;;4402902;32;21422;-62
2023/09/26 08:42:59;;;;;;;5.03;1.50;;;16.80;99.90;;;;;;4390574;32;20816;-61
2023/09/26 08:45:25;;;;;;;0.52;0.52;;;16.80;99.90;;;;;;4393605;32;20089;-61
2023/09/26 08:47:54;;;;;;;1.12;0.85;;;16.80;99.90;;;;;;4387319;32;20114;-60
2023/09/26 08:50:22;;;;;;;4.93;1.27;;;16.90;99.90;;;;;;4376640;32;20133;-61
2023/09/26 08:52:47;;;;;;;9.70;1.10;;;16.90;99.90;;;;;;4388553;32;20554;-62
2023/09/26 08:55:13;;;;;;;1.50;1.12;;;17.00;99.90;;;;;;4394078;32;20732;-60
2023/09/26 08:57:39;;;;;;;0.80;0.80;;;17.10;99.90;;;;;;4383150;32;20473;-62
2023/09/26 09:02:35;;;;;;;2.42;0.85;;;17.20;99.90;;;;;;4395293;32;20089;-61
2023/09/26 09:05:01;;;;;;;2.05;1.17;;;17.30;99.90;;;;;;4395945;32;20151;-61
2023/09/26 09:07:26;;;;;;;2.37;1.00;;;17.30;99.90;;;;;;4384886;32;20955;-61
2023/09/26 09:10:11;;;;;;;3.85;1.17;;;17.50;99.90;;;;;;4392703;32;20180;-60
2023/09/26 09:12:37;;;;;;;0.88;0.88;;;17.60;99.90;;;;;;4390890;32;20734;-60
2023/09/26 09:15:19;;;;;;;7.28;0.93;;;17.80;99.90;;;;;;4390740;32;20113;-62
2023/09/26 09:17:46;;;;;;;1.70;1.42;;;17.90;99.90;;;;;;4390352;32;20117;-62
2023/09/26 09:20:16;;;;;;;0.93;0.68;;;18.10;99.90;;;;;;4378870;32;20080;-62
2023/09/26 09:22:44;;;;;;;3.30;1.48;;;18.10;99.90;;;;;;4388925;32;20346;-62
2023/09/26 09:25:09;;;;;;;0.85;0.85;;;18.20;99.90;;;;;;4389001;32;21596;-62
2023/09/26 09:27:38;;;;;;;0.60;0.55;;;18.30;99.90;;;;;;4375714;32;21269;-62
2023/09/26 09:30:07;;;;;;;3.72;1.20;;;18.40;99.90;;;;;;4381441;32;20835;-59
2023/09/26 09:32:33;;;;;;;0.37;0.37;;;18.60;99.90;;;;;;4385716;32;20447;-59
2023/09/26 09:34:59;;;;;;;0.82;0.82;;;18.80;99.90;;;;;;4379084;32;20317;-61
2023/09/26 09:37:24;;;;;;;4.62;1.73;;;18.90;99.90;;;;;;4378978;32;20515;-59
2023/09/26 09:39:51;;;;;;;2.00;1.05;;;19.00;99.90;;;;;;4389438;32;20108;-60
2023/09/26 09:42:16;;;;;;;0.52;0.52;;;19.00;99.90;;;;;;4393708;32;20329;-61
2023/09/26 09:44:42;;;;;;;0.88;0.85;;;19.00;99.90;;;;;;4394024;32;20316;-60
2023/09/26 09:47:10;;;;;;;0.47;0.47;;;19.10;99.90;;;;;;4393784;32;21804;-59
2023/09/26 09:49:41;;;;;;;0.60;0.40;;;19.20;99.90;;;;;;4392814;32;20128;-60
2023/09/26 09:52:09;;;;;;;1.17;0.52;;;19.20;99.90;;;;;;4396925;32;20085;-61
2023/09/26 09:54:42;;;;;;;1.95;0.80;;;19.20;99.90;;;;;;4384065;32;20100;-62
2023/09/26 09:57:10;;;;;;;0.70;0.70;;;19.30;99.90;;;;;;4393118;32;20095;-61
2023/09/26 09:59:37;;;;;;;0.57;0.57;;;19.40;99.90;;;;;;4400878;32;20085;-61
2023/09/26 10:02:04;;;;;;;0.55;0.55;;;19.50;99.90;;;;;;4390351;32;20477;-61
2023/09/26 10:04:31;;;;;;;0.60;0.60;;;19.50;99.90;;;;;;4389948;32;20093;-58
2023/09/26 10:06:59;;;;;;;1.52;0.85;;;19.60;99.90;;;;;;4399346;32;20147;-61
2023/09/26 10:09:25;;;;;;;0.73;0.73;;;19.70;99.90;;;;;;4383809;32;20114;-61
2023/09/26 10:11:52;;;;;;;4.57;1.42;;;19.70;99.90;;;;;;4387231;32;21720;-61
2023/09/26 10:14:23;;;;;;;7.37;1.85;;;19.80;99.90;;;;;;4384354;32;20077;-63
2023/09/26 10:16:50;;;;;;;0.40;0.40;;;19.90;99.90;;;;;;4385732;32;20233;-62
2023/09/26 10:19:16;;;;;;;1.73;0.70;;;19.90;99.90;;;;;;4395781;32;20070;-63
2023/09/26 10:21:42;;;;;;;1.40;0.75;;;20.00;99.90;;;;;;4391091;32;20175;-63
2023/09/26 10:24:16;;;;;;;1.75;0.80;;;20.10;99.90;;;;;;4396426;32;20100;-62
2023/09/26 10:26:44;;;;;;;0.43;0.43;;;20.20;99.90;;;;;;4394522;32;20187;-60
2023/09/26 10:29:17;;;;;;;1.80;1.27;;;20.20;99.90;;;;;;4411155;32;20217;-63
2023/09/26 10:31:53;;;;;;;1.27;0.85;;;20.30;99.90;;;;;;4388043;32;20476;-61
2023/09/26 10:34:22;;;;;;;21.25;0.73;;;20.40;99.90;;;;;;4403365;32;20105;-62
2023/09/26 10:36:48;;;;;;;0.47;0.43;;;20.50;99.90;;;;;;4407802;32;20116;-61
2023/09/26 10:39:14;;;;;;;0.50;0.50;;;20.60;99.90;;;;;;4404346;32;20544;-60
2023/09/26 10:41:40;;;;;;;0.50;0.50;;;20.70;99.90;;;;;;4401458;32;21985;-61
2023/09/26 10:44:06;;;;;;;41.80;1.55;;;20.80;99.90;;;;;;4390671;32;20273;-60
2023/09/26 10:46:31;;;;;;;0.60;0.60;;;20.80;99.90;;;;;;4387916;32;20168;-59
2023/09/26 10:48:57;;;;;;;0.47;0.47;;;20.80;99.90;;;;;;4408911;32;20279;-60
2023/09/26 10:51:23;;;;;;;0.43;0.43;;;20.90;99.90;;;;;;4393540;32;20201;-61
2023/09/26 10:53:48;;;;;;;0.43;0.43;;;21.00;99.90;;;;;;4397235;32;20850;-61
2023/09/26 10:56:14;;;;;;;0.85;0.80;;;21.10;99.90;;;;;;4391097;32;20455;-61
2023/09/26 10:58:44;;;;;;;0.37;0.37;;;21.10;99.90;;;;;;4387756;32;20093;-61
2023/09/26 11:01:11;;;;;;;0.55;0.52;;;21.30;99.90;;;;;;4394740;32;21851;-61
2023/09/26 11:03:36;;;;;;;0.68;0.68;;;21.40;99.90;;;;;;4404472;32;20084;-61
2023/09/26 11:06:04;;;;;;;1.67;1.00;;;21.50;99.90;;;;;;4408734;32;21353;-60
2023/09/26 11:08:30;;;;;;;0.52;0.50;;;21.70;99.90;;;;;;4407375;32;20209;-61
2023/09/26 11:10:57;;;;;;;0.40;0.40;;;21.70;99.90;;;;;;4403243;32;20202;-60
2023/09/26 11:13:23;;;;;;;0.80;0.50;;;21.90;99.90;;;;;;4395253;32;20076;-61
2023/09/26 11:15:53;;;;;;;0.95;0.80;;;22.10;99.90;;;;;;4400470;32;20180;-61
2023/09/26 11:18:18;;;;;;;0.25;0.20;;;22.30;99.90;;;;;;4406074;32;20559;-62
2023/09/26 11:20:44;;;;;;;1.73;1.23;;;22.60;99.90;;;;;;4404785;32;20592;-61
2023/09/26 11:23:09;;;;;;;0.40;0.40;;;22.90;99.90;;;;;;4402665;32;20594;-60
2023/09/26 11:25:35;;;;;;;0.70;0.70;;;23.20;99.90;;;;;;4407293;32;20072;-60
2023/09/26 11:28:02;;;;;;;0.60;0.60;;;23.40;99.90;;;;;;4402433;32;20105;-60
2023/09/26 11:30:27;;;;;;;0.60;0.47;;;23.70;99.90;;;;;;4402925;32;20637;-62
2023/09/26 11:32:54;;;;;;;0.20;0.20;;;24.10;99.90;;;;;;4401566;32;20204;-60
2023/09/26 11:35:22;;;;;;;0.30;0.30;;;24.60;99.90;;;;;;4410313;32;20099;-62
2023/09/26 11:37:49;;;;;;;0.40;0.40;;;25.10;99.90;;;;;;4406633;32;20085;-62
2023/09/26 11:40:32;;;;;;;0.32;0.32;;;25.40;99.90;;;;;;4399308;32;20104;-60
2023/09/26 11:43:02;;;;;;;2.45;1.25;;;25.60;99.90;;;;;;4395664;32;20139;-62
2023/09/26 11:45:28;;;;;;;;;;;25.60;99.90;;;;;;4396203;32;20108;-62
2023/09/26 11:47:56;;;;;;;0.82;0.43;;;25.80;99.90;;;;;;4390937;32;90463;-63
2023/09/26 11:50:22;;;;;;;0.95;0.60;;;26.30;99.90;;;;;;4396616;32;20831;-59
2023/09/26 11:52:48;;;;;;;0.65;0.30;;;26.50;99.90;;;;;;4401811;32;20113;-63
2023/09/26 11:55:18;;;;;;;3.97;1.17;;;26.50;99.90;;;;;;4387833;32;20244;-63
2023/09/26 11:57:45;;;;;;;0.40;0.20;;;26.80;99.90;;;;;;4407105;32;20120;-62
2023/09/26 12:00:15;;;;;;;0.22;0.22;;;26.70;99.90;;;;;;4405245;32;20120;-61
2023/09/26 12:02:43;;;;;;;0.65;0.35;;;26.90;99.90;;;;;;4405215;32;20080;-63
2023/09/26 12:05:11;;;;;;;0.65;0.50;;;27.30;99.90;;;;;;4400642;32;20125;-60
2023/09/26 12:07:37;;;;;;;0.73;0.73;;;27.60;99.90;;;;;;4406454;32;20174;-61
2023/09/26 12:10:04;;;;;;;0.30;0.30;;;27.70;99.90;;;;;;4400270;32;20093;-61
2023/09/26 12:12:30;;;;;;;0.32;0.32;;;27.90;99.90;;;;;;4405704;32;20609;-61
2023/09/26 12:15:16;;;;;;;0.47;0.47;;;28.10;99.90;;;;;;4411826;32;20362;-62
2023/09/26 12:17:41;;;;;;;1.30;0.32;;;28.30;99.90;;;;;;4402942;32;20177;-60
2023/09/26 12:20:08;;;;;;;0.47;0.40;;;28.40;99.90;;;;;;4399532;32;20226;-63
2023/09/26 12:22:34;;;;;;;3.03;0.60;;;28.30;99.90;;;;;;4391275;32;21479;-61
2023/09/26 12:24:59;;;;;;;0.30;0.30;;;28.40;99.90;;;;;;4408715;32;20093;-62
2023/09/26 12:27:25;;;;;;;0.95;0.88;;;28.80;99.90;;;;;;4392559;32;20097;-63
2023/09/26 12:29:51;;;;;;;0.70;0.57;;;29.10;99.90;;;;;;4392584;32;20263;-61
2023/09/26 12:32:16;;;;;;;0.20;0.20;;;29.00;99.90;;;;;;4385439;32;20105;-61
2023/09/26 12:34:42;;;;;;;0.30;0.30;;;28.80;99.90;;;;;;4411136;32;20096;-62
2023/09/26 12:37:08;;;;;;;2.22;1.02;;;29.10;99.90;;;;;;4390788;32;20499;-62
2023/09/26 12:39:33;;;;;;;3.42;0.73;;;29.10;99.90;;;;;;4408580;32;20101;-63
2023/09/26 12:41:59;;;;;;;0.52;0.30;;;29.10;99.90;;;;;;4418039;32;20852;-63
2023/09/26 12:44:24;;;;;;;1.23;0.73;;;29.20;99.90;;;;;;4404572;32;20428;-64
2023/09/26 12:46:50;;;;;;;0.30;0.30;;;29.10;99.90;;;;;;4413865;32;20489;-62